Time;durP1;ratioP1;P1;durP2;ratioP2;P2;SDS_P1;SDS_P2;PMS_P1;PMS_P2;Temp;Humidity;BMP_temperature;BMP_pressure;BME280_temperature;BME280_humidity;BME280_pressure;Samples;Min_cycle;Max_cycle;Signal;HPM_P1;HPM_P2
2021/12/31 07:40:51;;;;;;;285.95;110.28;;;4.20;99.90;;;;;;5113845;27;20410;-88
2021/12/31 07:43:18;;;;;;;264.83;108.63;;;4.30;99.90;;;;;;5111365;28;20027;-87
2021/12/31 07:45:44;;;;;;;237.07;100.78;;;4.50;99.90;;;;;;5111027;28;20474;-89
2021/12/31 07:48:12;;;;;;;245.48;100.97;;;4.80;99.90;;;;;;5112364;28;20081;-89
2021/12/31 07:50:38;;;;;;;206.73;91.00;;;5.00;99.90;;;;;;5111972;28;20466;-86
2021/12/31 07:53:07;;;;;;;210.90;88.90;;;5.30;99.90;;;;;;5111553;28;20050;-88
2021/12/31 07:55:34;;;;;;;203.27;90.13;;;5.60;99.90;;;;;;5111641;28;20538;-88
2021/12/31 07:58:01;;;;;;;193.48;86.65;;;5.70;99.90;;;;;;5112023;28;20024;-88
2021/12/31 08:00:40;;;;;;;185.02;81.47;;;5.90;99.90;;;;;;5111707;28;20028;-87
2021/12/31 08:13:45;;;;;;;140.88;71.05;;;6.50;99.90;;;;;;5052626;28;20035;-90
2021/12/31 08:17:07;;;;;;;130.57;66.28;;;6.60;99.90;;;;;;5032283;28;20030;-89
2021/12/31 08:20:32;;;;;;;120.57;60.60;;;6.80;99.90;;;;;;4959312;28;20094;-89
2021/12/31 08:23:09;;;;;;;128.25;61.42;;;7.00;99.90;;;;;;4956239;28;20064;-90
2021/12/31 08:25:36;;;;;;;106.43;53.53;;;7.10;99.90;;;;;;5010265;28;20018;-89
2021/12/31 08:28:03;;;;;;;121.88;57.15;;;7.20;99.90;;;;;;5022242;28;20436;-89
2021/12/31 08:30:29;;;;;;;111.65;53.67;;;7.20;99.90;;;;;;5006336;28;20492;-89
2021/12/31 08:32:58;;;;;;;109.47;54.00;;;7.30;99.90;;;;;;4992844;28;20529;-87
2021/12/31 08:35:27;;;;;;;137.02;60.05;;;7.30;99.90;;;;;;5013152;28;20124;-88
2021/12/31 08:37:53;;;;;;;128.05;58.35;;;7.40;99.90;;;;;;5013060;28;20093;-87
2021/12/31 08:40:22;;;;;;;140.32;63.00;;;7.50;99.90;;;;;;5018939;28;20049;-88
2021/12/31 08:42:51;;;;;;;139.75;60.83;;;7.50;99.90;;;;;;5063184;28;20045;-88
2021/12/31 08:45:21;;;;;;;150.32;65.85;;;7.60;99.90;;;;;;5114025;28;20015;-88
2021/12/31 08:47:47;;;;;;;212.43;83.45;;;7.60;99.90;;;;;;5113266;28;20028;-86
2021/12/31 08:50:25;;;;;;;213.68;81.55;;;7.60;99.90;;;;;;5111611;28;20024;-87
2021/12/31 08:52:59;;;;;;;166.27;67.28;;;7.60;99.90;;;;;;5104340;27;20023;-86
2021/12/31 08:55:24;;;;;;;221.40;86.20;;;7.70;99.90;;;;;;5141298;27;20023;-86
2021/12/31 09:09:24;;;;;;;122.47;55.17;;;7.90;99.90;;;;;;4952458;29;20035;-88
2021/12/31 09:11:58;;;;;;;119.10;51.13;;;7.90;99.90;;;;;;4950240;28;20094;-88
2021/12/31 10:12:19;;;;;;;110.50;49.95;;;7.50;99.90;;;;;;5093235;27;20812;-88
2021/12/31 10:14:45;;;;;;;61.13;27.40;;;7.80;99.90;;;;;;5091591;28;20024;-89
2021/12/31 10:17:11;;;;;;;56.65;27.65;;;8.10;99.90;;;;;;5091592;28;20055;-89
2021/12/31 10:19:57;;;;;;;45.67;24.77;;;8.40;99.90;;;;;;5091929;28;20017;-90
2021/12/31 10:22:43;;;;;;;43.13;23.50;;;8.80;99.90;;;;;;5091474;28;20020;-89
2021/12/31 10:25:19;;;;;;;41.80;21.98;;;9.00;99.90;;;;;;5091922;28;20078;-89
2021/12/31 10:27:58;;;;;;;41.25;21.50;;;9.40;99.90;;;;;;5091393;28;20017;-88
2021/12/31 10:30:26;;;;;;;51.88;27.02;;;9.90;99.90;;;;;;5091162;28;20115;-89
2021/12/31 10:32:52;;;;;;;58.75;31.08;;;10.20;99.90;;;;;;5091194;28;20073;-89
2021/12/31 10:35:22;;;;;;;57.60;32.60;;;10.50;99.90;;;;;;5091457;28;20016;-87
2021/12/31 10:37:58;;;;;;;60.42;30.70;;;10.80;99.90;;;;;;5090383;28;20032;-88
2021/12/31 10:40:44;;;;;;;62.80;30.83;;;11.00;99.90;;;;;;5091023;28;20058;-89
2021/12/31 10:43:25;;;;;;;57.97;29.88;;;11.20;99.90;;;;;;5091280;28;20063;-88
2021/12/31 10:46:07;;;;;;;45.22;22.88;;;11.50;99.90;;;;;;5091239;28;20036;-88
2021/12/31 10:48:48;;;;;;;46.08;23.52;;;11.80;99.90;;;;;;5090525;28;20024;-88
2021/12/31 10:51:16;;;;;;;45.70;23.52;;;12.00;99.90;;;;;;5090441;28;20467;-89
2021/12/31 10:53:50;;;;;;;46.72;23.88;;;12.10;99.90;;;;;;5091165;28;20024;-89
2021/12/31 10:56:16;;;;;;;46.47;23.00;;;12.30;99.90;;;;;;5091754;28;20386;-88
2021/12/31 10:58:54;;;;;;;40.97;21.23;;;12.50;99.90;;;;;;5090287;28;20059;-89
2021/12/31 11:08:38;;;;;;;31.17;16.95;;;13.10;99.90;;;;;;5069581;28;20023;-87
2021/12/31 11:11:04;;;;;;;29.15;15.93;;;13.20;99.90;;;;;;5052360;28;20037;-87
2021/12/31 11:13:31;;;;;;;28.02;16.23;;;13.40;99.90;;;;;;5065776;28;20039;-87
2021/12/31 11:15:59;;;;;;;31.05;16.77;;;13.50;99.90;;;;;;5070203;28;20021;-87
2021/12/31 11:18:25;;;;;;;37.60;19.70;;;13.70;99.90;;;;;;5069855;28;20526;-87
2021/12/31 11:21:00;;;;;;;39.88;21.13;;;13.70;99.90;;;;;;5067214;28;20025;-87
2021/12/31 11:23:40;;;;;;;36.88;20.50;;;13.80;99.90;;;;;;5056429;28;20048;-88
2021/12/31 11:26:08;;;;;;;38.00;19.25;;;14.00;99.90;;;;;;5065203;28;20035;-87
2021/12/31 11:28:44;;;;;;;38.00;18.23;;;14.10;99.90;;;;;;5076064;28;20028;-87
2021/12/31 11:31:39;;;;;;;29.90;15.82;;;14.20;99.90;;;;;;5077792;28;20482;-87
2021/12/31 11:34:08;;;;;;;29.63;15.55;;;14.30;99.90;;;;;;5075789;28;20375;-87
2021/12/31 11:36:45;;;;;;;30.30;16.23;;;14.50;99.90;;;;;;5076529;28;20028;-87
2021/12/31 11:39:24;;;;;;;28.27;15.18;;;14.80;99.50;;;;;;5076990;28;20475;-87
2021/12/31 11:42:04;;;;;;;27.38;13.77;;;15.00;98.80;;;;;;5076968;28;20024;-87
2021/12/31 11:44:31;;;;;;;22.63;11.63;;;15.20;99.10;;;;;;5076109;28;20048;-87
2021/12/31 11:47:18;;;;;;;19.90;10.98;;;15.50;98.30;;;;;;5076666;28;20024;-87
2021/12/31 11:49:46;;;;;;;17.77;9.70;;;15.70;98.60;;;;;;5076618;28;20028;-87
2021/12/31 11:52:14;;;;;;;18.50;9.18;;;16.00;97.10;;;;;;5076373;28;20027;-87
2021/12/31 11:55:26;;;;;;;14.90;8.45;;;16.40;95.60;;;;;;5076751;28;20028;-86
2021/12/31 11:57:52;;;;;;;16.05;9.60;;;16.80;96.80;;;;;;5073612;28;20534;-87
2021/12/31 12:00:26;;;;;;;21.17;10.88;;;17.10;95.00;;;;;;5076902;28;20048;-86
2021/12/31 12:02:52;;;;;;;21.15;11.25;;;17.40;93.90;;;;;;5076514;28;20047;-86
2021/12/31 12:05:20;;;;;;;69.60;24.40;;;17.60;94.20;;;;;;5075957;28;20025;-87
2021/12/31 12:07:49;;;;;;;37.45;17.65;;;17.80;94.20;;;;;;5075850;28;20108;-87
2021/12/31 12:10:27;;;;;;;38.85;19.25;;;18.10;94.10;;;;;;5075570;28;20049;-87
2021/12/31 12:12:56;;;;;;;32.13;16.67;;;18.30;92.60;;;;;;5059820;28;20548;-87
2021/12/31 12:15:29;;;;;;;40.80;21.67;;;18.50;93.40;;;;;;5075872;28;20108;-87
2021/12/31 12:17:56;;;;;;;39.20;20.00;;;18.80;93.70;;;;;;5076065;28;20025;-87
2021/12/31 12:20:32;;;;;;;37.08;21.45;;;19.00;92.80;;;;;;5076895;28;20368;-87
2021/12/31 12:22:58;;;;;;;38.63;21.77;;;19.30;92.00;;;;;;5078122;28;20552;-86
2021/12/31 12:25:29;;;;;;;39.33;21.83;;;19.50;92.20;;;;;;5077616;28;20111;-87
2021/12/31 12:27:57;;;;;;;37.58;21.55;;;19.70;90.70;;;;;;5076040;28;20020;-87
2021/12/31 12:30:24;;;;;;;35.22;20.15;;;19.90;90.90;;;;;;5075842;28;20021;-87
2021/12/31 12:35:46;;;;;;;41.20;24.55;;;20.10;90.10;;;;;;5075396;28;20429;-86
2021/12/31 12:38:26;;;;;;;40.40;23.80;;;20.10;90.20;;;;;;5077061;28;20168;-86
2021/12/31 12:41:19;;;;;;;39.75;22.27;;;20.20;90.50;;;;;;5075420;28;20035;-87
2021/12/31 12:43:48;;;;;;;43.15;26.15;;;20.40;88.40;;;;;;5074144;28;20120;-86
2021/12/31 12:46:18;;;;;;;48.50;27.02;;;20.50;86.00;;;;;;5075526;28;20020;-86
2021/12/31 12:48:54;;;;;;;51.72;26.88;;;20.50;87.00;;;;;;5075310;28;20027;-86
2021/12/31 12:51:31;;;;;;;46.78;26.27;;;20.60;85.80;;;;;;5075195;28;20028;-86
2021/12/31 12:53:59;;;;;;;37.53;21.70;;;20.60;86.30;;;;;;5075261;28;20046;-86
2021/12/31 12:56:25;;;;;;;34.35;20.52;;;20.60;84.40;;;;;;5075312;28;20566;-87
2021/12/31 12:58:53;;;;;;;33.88;19.90;;;20.60;83.20;;;;;;5075100;28;20089;-87
2021/12/31 13:01:43;;;;;;;32.38;18.75;;;20.50;85.30;;;;;;5075230;28;20427;-86
2021/12/31 13:04:11;;;;;;;28.13;17.63;;;20.60;84.90;;;;;;5075021;28;20490;-87
2021/12/31 13:06:39;;;;;;;34.58;19.52;;;20.80;87.30;;;;;;5075118;28;20032;-87
2021/12/31 13:09:15;;;;;;;40.55;23.67;;;21.00;83.50;;;;;;5074862;28;20068;-87
2021/12/31 13:11:47;;;;;;;41.85;24.40;;;21.00;82.80;;;;;;5074944;28;20504;-87
2021/12/31 13:14:15;;;;;;;39.67;23.65;;;21.00;82.80;;;;;;5074867;28;20025;-87
2021/12/31 13:16:42;;;;;;;42.13;24.15;;;21.10;81.30;;;;;;5074689;28;20070;-86
2021/12/31 13:19:10;;;;;;;44.70;24.02;;;21.10;85.00;;;;;;5074307;28;20054;-87
2021/12/31 13:21:36;;;;;;;43.00;24.90;;;21.20;82.80;;;;;;5074829;28;20025;-87
2021/12/31 13:24:03;;;;;;;64.25;35.33;;;21.30;81.90;;;;;;5075417;28;20020;-87
2021/12/31 13:26:33;;;;;;;59.17;35.22;;;21.20;80.00;;;;;;5074665;28;20017;-87
2021/12/31 13:29:01;;;;;;;55.85;33.53;;;21.10;81.10;;;;;;5075165;28;20025;-87
2021/12/31 13:31:38;;;;;;;60.67;33.70;;;21.10;82.50;;;;;;5074838;28;20039;-87
2021/12/31 13:34:16;;;;;;;76.80;42.30;;;21.20;81.70;;;;;;5074647;28;20081;-87
2021/12/31 13:36:50;;;;;;;113.72;62.22;;;21.20;81.10;;;;;;5074735;28;20025;-87
2021/12/31 13:39:18;;;;;;;80.20;46.37;;;21.10;82.00;;;;;;5074918;28;20028;-87
2021/12/31 13:42:18;;;;;;;71.95;39.38;;;21.00;83.30;;;;;;5075248;28;20052;-87
2021/12/31 13:44:49;;;;;;;74.43;41.10;;;20.90;83.90;;;;;;5052890;28;20036;-87
2021/12/31 13:47:18;;;;;;;68.68;37.28;;;20.90;84.50;;;;;;5074362;28;20024;-87
2021/12/31 13:49:53;;;;;;;67.47;38.85;;;20.80;84.00;;;;;;5074500;28;20024;-87
2021/12/31 13:52:22;;;;;;;64.40;39.97;;;20.60;84.70;;;;;;5074480;28;20027;-87
2021/12/31 13:54:53;;;;;;;74.22;41.22;;;20.60;86.40;;;;;;5074252;28;20029;-87
2021/12/31 13:57:31;;;;;;;80.90;44.72;;;20.50;85.00;;;;;;5074324;28;20021;-87
2021/12/31 14:00:09;;;;;;;89.57;49.55;;;20.50;85.00;;;;;;5074920;28;20025;-87
2021/12/31 14:02:40;;;;;;;88.82;51.67;;;20.40;85.60;;;;;;5075309;28;20028;-87
2021/12/31 14:05:10;;;;;;;103.38;56.20;;;20.30;85.30;;;;;;5074763;28;20082;-87
2021/12/31 14:10:25;;;;;;;;;;;19.90;86.60;;;;;;5075699;28;20053;-87
2021/12/31 14:12:52;;;;;;;161.63;79.97;;;19.80;86.60;;;;;;5074064;28;19904;-87
2021/12/31 14:15:21;;;;;;;153.60;79.47;;;19.60;87.30;;;;;;5074433;28;20368;-87
2021/12/31 14:17:50;;;;;;;164.90;80.30;;;19.40;87.50;;;;;;5074687;28;20082;-87
2021/12/31 14:20:20;;;;;;;166.13;84.28;;;19.30;87.70;;;;;;5073931;28;20040;-87
2021/12/31 14:22:47;;;;;;;155.75;82.70;;;19.20;88.60;;;;;;5073723;28;20028;-87
2021/12/31 14:25:13;;;;;;;133.35;73.25;;;19.10;88.50;;;;;;5074362;28;20020;-87
2021/12/31 14:27:39;;;;;;;132.38;71.90;;;19.00;88.50;;;;;;5074242;28;20199;-86
2021/12/31 14:30:08;;;;;;;128.80;68.10;;;18.80;89.10;;;;;;5073761;28;20057;-87
2021/12/31 14:32:36;;;;;;;131.32;68.97;;;18.80;90.00;;;;;;5074133;28;20082;-87
2021/12/31 14:35:03;;;;;;;140.05;74.60;;;18.80;90.60;;;;;;5073750;28;20078;-87
2021/12/31 14:37:28;;;;;;;173.38;90.05;;;18.80;89.30;;;;;;5073917;28;20021;-87
2021/12/31 14:39:57;;;;;;;185.68;93.70;;;18.60;90.00;;;;;;5074081;28;20029;-86
2021/12/31 14:42:28;;;;;;;189.57;93.03;;;18.20;90.50;;;;;;5074134;28;20032;-87
2021/12/31 14:44:56;;;;;;;154.65;80.18;;;18.00;91.10;;;;;;5073601;28;20487;-87
2021/12/31 14:47:22;;;;;;;143.38;71.07;;;17.70;92.00;;;;;;5074761;28;20452;-87
2021/12/31 14:49:48;;;;;;;143.80;70.53;;;17.50;91.90;;;;;;5073843;28;20025;-87
2021/12/31 14:52:15;;;;;;;173.73;79.43;;;17.40;91.90;;;;;;5074069;28;20031;-87
2021/12/31 14:54:42;;;;;;;171.88;78.97;;;17.20;92.10;;;;;;5073749;28;20021;-87
2021/12/31 14:57:10;;;;;;;165.13;74.00;;;16.90;92.80;;;;;;5075994;28;20044;-87
2021/12/31 14:59:36;;;;;;;151.93;73.20;;;16.80;93.00;;;;;;5077394;28;20032;-87
2021/12/31 15:02:03;;;;;;;144.57;71.93;;;16.60;93.20;;;;;;5077588;28;20021;-87
2021/12/31 15:04:29;;;;;;;142.77;68.82;;;16.30;93.50;;;;;;5077360;28;20028;-87
2021/12/31 15:06:55;;;;;;;141.43;69.85;;;16.10;94.40;;;;;;5076899;28;20020;-87
2021/12/31 15:09:21;;;;;;;143.57;70.03;;;16.00;95.30;;;;;;5077283;28;20028;-87
2021/12/31 15:11:48;;;;;;;136.30;69.50;;;15.90;95.40;;;;;;5078434;28;20116;-87
2021/12/31 15:14:14;;;;;;;141.75;71.38;;;15.90;95.70;;;;;;5076914;28;20033;-87
2021/12/31 15:16:40;;;;;;;117.22;59.33;;;15.90;95.10;;;;;;5077181;28;20076;-87
2021/12/31 15:19:06;;;;;;;120.00;61.22;;;15.70;95.90;;;;;;5077046;28;20029;-87
2021/12/31 15:21:34;;;;;;;149.63;76.03;;;15.60;95.80;;;;;;5077325;28;20024;-87
2021/12/31 15:24:00;;;;;;;154.05;77.88;;;15.50;96.10;;;;;;5076910;28;20052;-87
2021/12/31 15:26:26;;;;;;;177.20;86.85;;;15.40;96.70;;;;;;5076927;28;20020;-86
2021/12/31 15:28:52;;;;;;;160.57;79.72;;;15.40;95.70;;;;;;5077645;28;20382;-86
2021/12/31 15:31:18;;;;;;;182.45;87.70;;;15.20;96.60;;;;;;5077397;28;20034;-87
2021/12/31 15:33:44;;;;;;;171.40;85.20;;;15.10;96.90;;;;;;5077081;28;20112;-87
2021/12/31 15:36:12;;;;;;;178.52;87.22;;;15.10;97.10;;;;;;5076646;28;20051;-87
2021/12/31 15:38:38;;;;;;;183.90;82.32;;;15.00;96.70;;;;;;5076693;28;20048;-87
2021/12/31 15:41:05;;;;;;;178.23;86.50;;;14.80;96.90;;;;;;5076311;28;20048;-85
2021/12/31 15:43:31;;;;;;;174.95;82.88;;;14.60;97.10;;;;;;5076059;28;20030;-87
2021/12/31 15:45:58;;;;;;;205.85;95.60;;;14.50;97.80;;;;;;5076763;28;20530;-87
2021/12/31 15:48:24;;;;;;;205.73;92.13;;;14.50;97.50;;;;;;5076680;28;20025;-87
2021/12/31 15:50:50;;;;;;;186.68;87.80;;;14.40;98.00;;;;;;5076591;28;20535;-87
2021/12/31 15:53:15;;;;;;;245.25;107.38;;;14.30;98.20;;;;;;5077598;28;20028;-87
2021/12/31 15:55:41;;;;;;;226.60;103.43;;;14.20;97.80;;;;;;5076346;28;20501;-87
2021/12/31 15:58:07;;;;;;;198.25;94.13;;;14.20;97.80;;;;;;5076099;28;20025;-87
2021/12/31 16:00:33;;;;;;;241.20;111.00;;;14.00;98.40;;;;;;5076651;28;20378;-87
2021/12/31 16:03:00;;;;;;;231.13;104.35;;;13.90;98.10;;;;;;5076420;28;20024;-87
2021/12/31 16:05:26;;;;;;;203.93;99.78;;;13.70;98.40;;;;;;5076179;28;20040;-87
2021/12/31 16:07:55;;;;;;;252.07;116.80;;;13.70;98.70;;;;;;5076206;28;20043;-87
2021/12/31 16:10:21;;;;;;;287.05;132.63;;;13.60;98.80;;;;;;5075577;28;20079;-87
2021/12/31 16:12:47;;;;;;;319.17;141.70;;;13.40;98.90;;;;;;5076044;28;20526;-86
2021/12/31 16:15:15;;;;;;;273.92;120.55;;;13.30;99.00;;;;;;5075988;28;20056;-86
2021/12/31 16:17:42;;;;;;;297.25;130.48;;;13.30;99.20;;;;;;5075195;28;20024;-86
2021/12/31 16:20:09;;;;;;;267.05;126.82;;;13.20;99.50;;;;;;5076080;28;20028;-87
2021/12/31 16:22:35;;;;;;;271.23;124.68;;;13.20;99.90;;;;;;5076032;28;20116;-87
2021/12/31 16:25:01;;;;;;;292.08;133.20;;;13.20;99.90;;;;;;5075889;28;20070;-87
2021/12/31 16:27:27;;;;;;;326.17;143.35;;;13.20;99.90;;;;;;5075843;28;20020;-87
2021/12/31 16:29:57;;;;;;;302.17;135.48;;;13.20;99.90;;;;;;5075941;28;20115;-87
2021/12/31 16:32:25;;;;;;;328.73;145.05;;;13.20;99.90;;;;;;5076114;28;20374;-87
2021/12/31 16:34:52;;;;;;;339.60;155.73;;;13.20;99.80;;;;;;5075968;28;20171;-87
2021/12/31 16:37:17;;;;;;;312.30;142.35;;;13.00;99.90;;;;;;5075678;28;20025;-87
2021/12/31 16:39:43;;;;;;;283.95;131.27;;;13.00;99.70;;;;;;5075293;28;20116;-87
2021/12/31 16:42:10;;;;;;;270.33;122.60;;;12.90;99.90;;;;;;5075602;28;20017;-86
2021/12/31 16:44:36;;;;;;;310.92;142.32;;;12.90;99.90;;;;;;5075503;28;20016;-86
2021/12/31 16:47:03;;;;;;;283.48;134.05;;;12.80;99.90;;;;;;5075515;28;20025;-86
2021/12/31 16:49:28;;;;;;;269.55;126.40;;;12.80;99.90;;;;;;5075380;28;20486;-86
2021/12/31 16:51:54;;;;;;;252.35;116.40;;;12.70;99.90;;;;;;5075060;28;20017;-87
2021/12/31 16:54:20;;;;;;;260.05;116.95;;;12.60;99.90;;;;;;5075268;28;20487;-86
2021/12/31 16:56:46;;;;;;;263.20;116.68;;;12.60;99.90;;;;;;5075225;28;20498;-87
2021/12/31 16:59:11;;;;;;;245.50;114.28;;;12.50;99.90;;;;;;5075357;28;20433;-86
2021/12/31 17:01:37;;;;;;;208.95;100.18;;;12.40;99.90;;;;;;5075059;28;20425;-87
2021/12/31 17:04:03;;;;;;;249.60;111.22;;;12.30;99.90;;;;;;5075149;28;20028;-86
2021/12/31 17:06:29;;;;;;;245.18;108.68;;;12.40;99.90;;;;;;5076227;28;20135;-87
2021/12/31 17:08:55;;;;;;;247.98;111.05;;;12.30;99.90;;;;;;5075271;28;20040;-86
2021/12/31 17:11:20;;;;;;;223.13;102.97;;;12.20;99.90;;;;;;5075110;28;20040;-87
2021/12/31 17:13:46;;;;;;;199.40;96.22;;;12.10;99.90;;;;;;5076385;28;20075;-86
2021/12/31 17:16:12;;;;;;;212.93;100.97;;;12.10;99.90;;;;;;5074640;28;20021;-87
2021/12/31 17:18:38;;;;;;;261.73;117.00;;;12.00;99.90;;;;;;5074519;28;20021;-87
2021/12/31 17:21:04;;;;;;;328.80;150.43;;;12.10;99.90;;;;;;5074431;28;20485;-87
2021/12/31 17:23:30;;;;;;;332.13;145.75;;;12.10;99.90;;;;;;5075034;28;20021;-86
2021/12/31 17:25:56;;;;;;;327.67;139.35;;;12.00;99.90;;;;;;5073959;28;20028;-87
2021/12/31 17:28:22;;;;;;;330.80;144.90;;;12.00;99.90;;;;;;5074721;28;20536;-86
2021/12/31 17:30:47;;;;;;;326.85;145.43;;;12.00;99.90;;;;;;5075166;28;20088;-87
2021/12/31 17:33:13;;;;;;;319.83;137.13;;;11.70;99.90;;;;;;5074786;28;20033;-87
2021/12/31 17:35:39;;;;;;;298.00;130.50;;;11.50;99.90;;;;;;5074874;28;20051;-87
2021/12/31 17:38:05;;;;;;;293.58;126.20;;;11.30;99.90;;;;;;5074541;28;20021;-86
2021/12/31 17:40:31;;;;;;;278.50;121.30;;;11.30;99.90;;;;;;5074762;28;20111;-87
2021/12/31 17:42:57;;;;;;;292.23;127.05;;;11.30;99.90;;;;;;5074446;28;20016;-87
2021/12/31 17:45:23;;;;;;;272.42;117.80;;;11.20;99.90;;;;;;5074403;28;20017;-87
2021/12/31 17:47:49;;;;;;;269.60;118.82;;;11.10;99.90;;;;;;5074226;28;20486;-86
2021/12/31 17:50:15;;;;;;;268.27;116.32;;;11.10;99.90;;;;;;5074286;28;20025;-86
2021/12/31 17:52:41;;;;;;;278.20;121.53;;;11.00;99.90;;;;;;5074293;28;20028;-86
2021/12/31 17:55:08;;;;;;;330.20;135.77;;;11.00;99.90;;;;;;5074434;28;20028;-86
2021/12/31 17:57:34;;;;;;;319.77;132.85;;;11.10;99.90;;;;;;5073920;28;20029;-85
2021/12/31 18:00:01;;;;;;;303.60;127.30;;;11.10;99.90;;;;;;5074611;28;20028;-86
2021/12/31 18:02:27;;;;;;;307.05;130.13;;;10.90;99.90;;;;;;5074422;28;20387;-86
2021/12/31 18:04:53;;;;;;;278.42;118.40;;;10.90;99.90;;;;;;5074456;28;20021;-86
2021/12/31 18:07:19;;;;;;;255.57;113.32;;;10.90;99.90;;;;;;5074086;28;20464;-86
2021/12/31 18:09:44;;;;;;;246.95;108.53;;;10.90;99.90;;;;;;5074225;28;20048;-86
2021/12/31 18:12:11;;;;;;;243.43;105.38;;;10.90;99.90;;;;;;5073865;28;20028;-86
2021/12/31 18:14:38;;;;;;;238.60;108.07;;;10.90;99.90;;;;;;5074163;28;20024;-86
2021/12/31 18:17:04;;;;;;;286.08;119.28;;;10.90;99.90;;;;;;5074308;28;20021;-86
2021/12/31 18:19:31;;;;;;;277.40;118.97;;;11.00;99.90;;;;;;5073791;28;20028;-87
2021/12/31 18:21:57;;;;;;;284.48;122.05;;;10.90;99.90;;;;;;5074119;28;20017;-86
2021/12/31 18:24:23;;;;;;;260.05;116.57;;;10.90;99.90;;;;;;5074352;28;20553;-87
2021/12/31 18:26:49;;;;;;;237.90;103.80;;;10.70;99.90;;;;;;5074030;28;20143;-86
2021/12/31 18:29:15;;;;;;;280.35;122.18;;;10.70;99.90;;;;;;5074186;28;20423;-86
2021/12/31 18:31:41;;;;;;;253.88;113.78;;;10.70;99.90;;;;;;5074820;28;20036;-85
2021/12/31 18:34:07;;;;;;;256.50;112.80;;;10.70;99.90;;;;;;5077730;28;20024;-86
2021/12/31 18:36:33;;;;;;;235.77;103.35;;;10.70;99.90;;;;;;5077940;28;20383;-87
2021/12/31 18:38:59;;;;;;;245.18;108.50;;;10.60;99.90;;;;;;5078030;28;20020;-86
2021/12/31 18:41:25;;;;;;;209.07;93.20;;;10.50;99.90;;;;;;5077998;28;20033;-87
2021/12/31 18:43:51;;;;;;;195.65;90.05;;;10.50;99.90;;;;;;5077777;28;20016;-86
2021/12/31 18:46:31;;;;;;;226.13;98.13;;;10.40;99.90;;;;;;5078103;28;20115;-86
2021/12/31 18:49:05;;;;;;;227.02;101.93;;;10.40;99.90;;;;;;5077810;28;20024;-87
2021/12/31 18:51:31;;;;;;;226.27;100.72;;;10.40;99.90;;;;;;5077610;28;20059;-87
2021/12/31 18:53:57;;;;;;;188.55;88.15;;;10.30;99.90;;;;;;5077640;28;20066;-87
2021/12/31 18:56:24;;;;;;;224.52;97.80;;;10.30;99.90;;;;;;5077671;28;20021;-86
2021/12/31 18:58:51;;;;;;;209.70;97.78;;;10.20;99.90;;;;;;5077479;28;20024;-86
2021/12/31 19:01:19;;;;;;;219.05;101.88;;;10.10;99.90;;;;;;5077387;28;20021;-86
2021/12/31 19:03:45;;;;;;;232.65;102.28;;;10.10;99.90;;;;;;5077526;28;20103;-86
2021/12/31 19:06:10;;;;;;;207.95;93.82;;;10.10;99.90;;;;;;5077777;28;20412;-86
2021/12/31 19:08:36;;;;;;;253.65;112.65;;;10.00;99.90;;;;;;5077733;28;20101;-86
2021/12/31 19:11:02;;;;;;;214.20;96.25;;;10.00;99.90;;;;;;5076707;28;20055;-86
2021/12/31 19:13:28;;;;;;;232.77;105.07;;;10.00;99.90;;;;;;5077042;28;20033;-87
2021/12/31 19:15:54;;;;;;;214.57;96.80;;;10.00;99.90;;;;;;5077497;28;20028;-86
2021/12/31 19:18:20;;;;;;;216.15;100.60;;;10.00;99.90;;;;;;5077294;28;20074;-87
2021/12/31 19:20:46;;;;;;;231.85;106.18;;;10.00;99.90;;;;;;5077091;28;20546;-86
2021/12/31 19:23:11;;;;;;;262.45;116.68;;;10.00;99.90;;;;;;5076865;28;20016;-87
2021/12/31 19:25:37;;;;;;;230.80;104.80;;;9.90;99.90;;;;;;5077331;28;20056;-86
2021/12/31 19:28:04;;;;;;;234.00;106.53;;;9.80;99.90;;;;;;5077007;28;20028;-86
2021/12/31 19:30:30;;;;;;;246.93;110.70;;;9.70;99.90;;;;;;5076858;28;20081;-86
2021/12/31 19:32:56;;;;;;;270.27;118.18;;;9.70;99.90;;;;;;5077145;28;20039;-86
2021/12/31 19:35:22;;;;;;;293.50;125.00;;;9.70;99.90;;;;;;5078321;28;20498;-86
2021/12/31 19:37:47;;;;;;;270.67;120.20;;;9.60;99.90;;;;;;5076814;28;20471;-86
2021/12/31 19:40:14;;;;;;;284.55;122.63;;;9.50;99.90;;;;;;5076836;28;20024;-86
2021/12/31 19:42:39;;;;;;;236.32;105.85;;;9.50;99.90;;;;;;5076214;28;20460;-86
2021/12/31 19:45:06;;;;;;;247.90;110.65;;;9.40;99.90;;;;;;5076325;28;20032;-86
2021/12/31 19:47:32;;;;;;;282.58;121.72;;;9.50;99.90;;;;;;5076605;28;20027;-86
2021/12/31 19:49:58;;;;;;;271.42;122.90;;;9.50;99.90;;;;;;5076737;28;20025;-86
2021/12/31 19:52:24;;;;;;;265.27;115.97;;;9.40;99.90;;;;;;5076855;28;20025;-86
2021/12/31 19:54:49;;;;;;;269.63;115.68;;;9.30;99.90;;;;;;5076575;28;20541;-86
2021/12/31 19:57:15;;;;;;;268.25;114.68;;;9.20;99.90;;;;;;5076396;28;20077;-86
2021/12/31 19:59:41;;;;;;;265.95;112.68;;;9.20;99.90;;;;;;5076370;28;20028;-86
2021/12/31 20:02:07;;;;;;;291.65;123.13;;;9.20;99.90;;;;;;5077699;28;20490;-86
2021/12/31 20:04:33;;;;;;;243.27;110.55;;;9.10;99.90;;;;;;5076119;28;20020;-86
2021/12/31 20:06:59;;;;;;;282.13;120.13;;;9.00;99.90;;;;;;5076267;28;20027;-86
2021/12/31 20:09:25;;;;;;;259.20;112.32;;;8.80;99.90;;;;;;5077075;28;20017;-86
2021/12/31 20:11:51;;;;;;;213.30;97.03;;;8.70;99.90;;;;;;5076513;28;20034;-86
2021/12/31 20:14:18;;;;;;;247.70;110.00;;;8.70;99.90;;;;;;5076325;28;20025;-86
2021/12/31 20:16:43;;;;;;;242.63;106.65;;;8.70;99.90;;;;;;5076339;28;20032;-86
2021/12/31 20:19:09;;;;;;;258.92;111.72;;;8.70;99.90;;;;;;5075425;28;20429;-86
2021/12/31 20:21:35;;;;;;;242.88;106.85;;;8.70;99.90;;;;;;5076206;28;20028;-87
2021/12/31 20:24:01;;;;;;;256.48;112.60;;;8.50;99.90;;;;;;5076142;28;20024;-86
2021/12/31 20:26:27;;;;;;;230.98;101.82;;;8.50;99.90;;;;;;5076046;28;20021;-86
2021/12/31 20:28:53;;;;;;;225.82;99.55;;;8.60;99.90;;;;;;5075803;28;20028;-86
2021/12/31 20:31:20;;;;;;;207.05;91.65;;;8.50;99.90;;;;;;5076018;28;20478;-86
2021/12/31 20:33:46;;;;;;;226.18;97.53;;;8.50;99.90;;;;;;5075875;28;20028;-86
2021/12/31 20:36:13;;;;;;;216.18;96.50;;;8.50;99.90;;;;;;5075958;28;20056;-86
2021/12/31 20:38:38;;;;;;;267.98;113.10;;;8.50;99.90;;;;;;5076966;28;20032;-86
2021/12/31 20:41:04;;;;;;;235.95;101.82;;;8.50;99.90;;;;;;5075846;28;20025;-86
2021/12/31 20:43:30;;;;;;;250.43;106.88;;;8.50;99.90;;;;;;5075690;28;20029;-86
2021/12/31 20:45:56;;;;;;;270.05;113.80;;;8.50;99.90;;;;;;5075697;28;20029;-86
2021/12/31 20:48:22;;;;;;;239.75;102.85;;;8.50;99.90;;;;;;5075334;28;20052;-86
2021/12/31 20:50:49;;;;;;;292.63;120.72;;;8.40;99.90;;;;;;5075613;28;20099;-86
2021/12/31 20:53:15;;;;;;;216.45;94.85;;;8.40;99.90;;;;;;5075061;28;20507;-86
2021/12/31 20:55:41;;;;;;;246.77;105.30;;;8.30;99.90;;;;;;5074711;28;20043;-86
2021/12/31 20:58:07;;;;;;;249.45;106.20;;;8.30;99.90;;;;;;5075507;28;20062;-87
2021/12/31 21:00:32;;;;;;;238.02;104.90;;;8.30;99.90;;;;;;5075300;28;20025;-86
2021/12/31 21:02:58;;;;;;;276.55;111.15;;;8.20;99.90;;;;;;5075493;28;20020;-86
2021/12/31 21:05:33;;;;;;;259.08;108.97;;;8.10;99.90;;;;;;5075298;28;20021;-86
2021/12/31 21:07:59;;;;;;;239.43;102.97;;;8.00;99.90;;;;;;5075382;28;20025;-86
2021/12/31 21:10:29;;;;;;;258.13;109.65;;;8.00;99.90;;;;;;5075305;28;20491;-86
2021/12/31 21:12:56;;;;;;;236.68;99.18;;;7.90;99.90;;;;;;5075111;28;20024;-86
2021/12/31 21:15:22;;;;;;;254.15;104.15;;;7.90;99.90;;;;;;5075336;28;20021;-86
2021/12/31 21:17:48;;;;;;;238.10;99.38;;;7.70;99.90;;;;;;5076377;28;20036;-86
2021/12/31 21:20:14;;;;;;;232.02;93.55;;;7.70;99.90;;;;;;5074906;28;20028;-86
2021/12/31 21:22:40;;;;;;;218.20;91.30;;;7.70;99.90;;;;;;5074883;28;20036;-86
2021/12/31 21:25:06;;;;;;;219.75;91.63;;;7.70;99.90;;;;;;5074851;28;20383;-86
2021/12/31 21:27:34;;;;;;;207.77;82.30;;;7.80;99.90;;;;;;5074134;28;20025;-86
2021/12/31 21:30:00;;;;;;;187.70;80.25;;;7.80;99.90;;;;;;5075031;28;20020;-86
2021/12/31 21:32:26;;;;;;;184.60;78.35;;;7.80;99.90;;;;;;5074729;28;20444;-86
2021/12/31 21:34:52;;;;;;;199.70;85.45;;;7.90;99.90;;;;;;5075006;28;20107;-86
2021/12/31 21:37:17;;;;;;;187.18;79.65;;;7.90;99.90;;;;;;5074504;28;20387;-86
2021/12/31 21:39:43;;;;;;;157.98;71.32;;;7.80;99.90;;;;;;5074336;28;20026;-86
2021/12/31 21:42:09;;;;;;;182.18;79.47;;;7.80;99.90;;;;;;5074475;28;20471;-86